createdAt,value
2018-04-19T04:09:39.233Z,0
2018-04-19T04:10:04.673Z,0
2018-04-19T04:10:30.149Z,0
2018-04-19T04:10:55.665Z,0
2018-04-19T04:11:21.059Z,0
2018-04-19T04:11:46.596Z,0
2018-04-19T04:12:12.019Z,0
2018-04-19T04:12:37.508Z,0
2018-04-19T04:13:03.014Z,0
2018-04-19T04:13:28.489Z,0
2018-04-19T04:13:54.086Z,0
2018-04-19T04:14:19.623Z,0
2018-04-19T04:14:45.128Z,0
2018-04-19T04:15:10.595Z,0
2018-04-19T04:15:36.207Z,0
2018-04-19T04:16:01.753Z,0
2018-04-19T04:16:27.286Z,0
2018-04-19T04:16:52.697Z,0
2018-04-19T04:17:18.388Z,0
2018-04-19T04:17:43.979Z,0
2018-04-19T04:18:09.400Z,0
2018-04-19T04:18:34.971Z,0
2018-04-19T04:19:00.445Z,0
2018-04-19T04:19:25.890Z,5
2018-04-19T04:19:51.376Z,5
2018-04-19T04:20:16.865Z,5
2018-04-19T04:20:42.331Z,5
2018-04-19T04:21:07.863Z,5
2018-04-19T04:21:33.301Z,5
2018-04-19T04:21:58.798Z,5
2018-04-19T04:22:24.413Z,5
2018-04-19T04:22:49.801Z,5
2018-04-19T04:23:15.311Z,5
2018-04-19T04:23:40.849Z,5
2018-04-19T04:24:06.336Z,5
2018-04-19T04:24:31.870Z,5
2018-04-19T04:24:57.413Z,5
2018-04-19T04:25:23.031Z,5
2018-04-19T04:25:48.469Z,5
2018-04-19T04:26:14.055Z,5
2018-04-19T04:26:39.651Z,5
2018-04-19T04:27:05.153Z,10
2018-04-19T04:27:30.598Z,10
2018-04-19T04:27:56.175Z,10
2018-04-19T04:28:21.626Z,10
2018-04-19T04:28:47.097Z,10
2018-04-19T04:29:12.574Z,10
2018-04-19T04:29:38.037Z,10
2018-04-19T04:30:03.623Z,10
2018-04-19T04:30:29.123Z,10
2018-04-19T04:30:54.628Z,10
2018-04-19T04:31:20.270Z,10
2018-04-19T04:31:47.013Z,10
2018-04-19T04:32:12.896Z,10
2018-04-19T04:32:39.497Z,15
2018-04-19T04:33:05.709Z,15
2018-04-19T04:33:31.767Z,15
2018-04-19T04:33:57.658Z,15
2018-04-19T04:34:23.608Z,15
2018-04-19T04:34:49.879Z,15
2018-04-19T04:35:16.056Z,15
2018-04-19T04:35:41.204Z,15
2018-04-19T04:36:06.774Z,15
2018-04-19T04:37:39.902Z,20
2018-04-19T04:38:05.423Z,20
2018-04-19T04:38:30.916Z,20
2018-04-19T04:38:56.656Z,20
2018-04-19T04:39:22.208Z,20
2018-04-19T04:39:47.803Z,20
2018-04-19T04:40:14.080Z,20
2018-04-19T04:40:39.496Z,20
2018-04-19T04:41:05.291Z,20
2018-04-19T04:41:30.473Z,20
2018-04-19T04:41:56.297Z,25
2018-04-19T04:42:21.844Z,25
2018-04-19T04:42:47.618Z,25
2018-04-19T04:43:13.585Z,25
2018-04-19T04:43:39.624Z,25
2018-04-19T04:44:05.389Z,25
2018-04-19T04:44:30.866Z,25
2018-04-19T04:44:56.331Z,25
2018-04-19T04:45:21.846Z,25
2018-04-19T04:45:47.285Z,25
2018-04-19T04:46:12.848Z,30
2018-04-19T04:46:38.340Z,30
2018-04-19T04:47:03.935Z,30
2018-04-19T04:47:29.274Z,30
2018-04-19T04:47:54.845Z,30
2018-04-19T04:48:20.239Z,30
2018-04-19T04:48:45.848Z,30
2018-04-19T04:49:11.335Z,30
2018-04-19T04:49:36.732Z,30
2018-04-19T04:50:02.430Z,30
2018-04-19T04:50:27.899Z,35
2018-04-19T04:50:53.402Z,35
2018-04-19T04:51:19.309Z,35
2018-04-19T04:51:44.786Z,35
2018-04-19T04:52:10.593Z,35
2018-04-19T04:52:35.961Z,35
2018-04-19T04:53:01.940Z,35
2018-04-19T04:53:27.494Z,35
2018-04-19T04:53:53.144Z,35
2018-04-19T04:54:18.576Z,40
2018-04-19T04:54:44.188Z,40
2018-04-19T04:55:09.831Z,40
2018-04-19T04:55:35.446Z,40
2018-04-19T04:56:01.069Z,40
2018-04-19T04:56:26.527Z,40
2018-04-19T04:56:51.973Z,40
2018-04-19T04:57:17.467Z,40
2018-04-19T04:57:43.013Z,40
2018-04-19T04:58:08.369Z,45
2018-04-19T04:58:33.856Z,45
2018-04-19T04:58:59.272Z,45
2018-04-19T04:59:24.749Z,45
2018-04-19T04:59:50.279Z,45
2018-04-19T05:00:15.921Z,45
2018-04-19T05:00:41.308Z,45
2018-04-19T05:01:06.941Z,45
2018-04-19T05:01:32.456Z,45
2018-04-19T05:01:57.904Z,50
2018-04-19T05:02:23.653Z,50
2018-04-19T05:02:48.995Z,50
2018-04-19T05:03:14.796Z,50
2018-04-19T05:03:40.478Z,50
2018-04-19T05:04:06.111Z,50
2018-04-19T05:04:31.459Z,50
2018-04-19T05:04:56.907Z,50
2018-04-19T05:05:22.299Z,50
2018-04-19T05:05:47.925Z,50
2018-04-19T05:06:13.325Z,55
2018-04-19T05:06:38.896Z,55
2018-04-19T05:07:04.349Z,55
2018-04-19T05:07:29.913Z,55
2018-04-19T05:07:55.471Z,55
2018-04-19T05:08:20.944Z,55
2018-04-19T05:08:46.477Z,55
2018-04-19T05:09:11.943Z,55
2018-04-19T05:09:38.373Z,55
2018-04-19T05:10:04.069Z,55
2018-04-19T05:10:31.281Z,60
2018-04-19T05:10:55.994Z,60
2018-04-19T05:11:21.873Z,60
2018-04-19T05:11:47.682Z,60
2018-04-19T05:12:13.099Z,60
2018-04-19T05:12:38.629Z,60
2018-04-19T05:13:04.151Z,60
2018-04-19T05:13:30.145Z,60
2018-04-19T05:13:56.266Z,65
2018-04-19T05:14:23.777Z,65
2018-04-19T05:14:50.164Z,65
2018-04-19T05:15:16.112Z,65
2018-04-19T05:15:41.978Z,70
2018-04-19T05:16:07.423Z,70
2018-04-19T05:16:32.847Z,70
2018-04-19T05:16:59.004Z,70
2018-04-19T05:17:25.213Z,75
2018-04-19T05:17:52.242Z,75
2018-04-19T05:18:19.002Z,75
2018-04-19T05:18:45.514Z,75
2018-04-19T05:19:10.811Z,80
2018-04-19T05:19:36.496Z,80
2018-04-19T05:20:02.126Z,80
2018-04-19T05:20:28.512Z,80
2018-04-19T05:20:53.822Z,80
2018-04-19T05:21:19.399Z,80
2018-04-19T05:21:45.014Z,80
2018-04-19T05:22:10.687Z,80
2018-04-19T05:22:36.002Z,80
2018-04-19T05:23:01.481Z,80
2018-04-19T05:23:27.072Z,85
2018-04-19T05:23:52.502Z,85
2018-04-19T05:24:18.142Z,85
2018-04-19T05:24:43.686Z,85
2018-04-19T05:25:09.277Z,85
2018-04-19T05:25:34.841Z,90
2018-04-19T05:26:00.536Z,90
2018-04-19T05:26:26.187Z,90
2018-04-19T05:26:51.669Z,90
2018-04-19T05:27:17.216Z,95
2018-04-19T05:27:42.710Z,95
2018-04-19T05:28:08.221Z,95
2018-04-19T05:28:33.732Z,100
2018-04-19T05:28:59.152Z,100
2018-04-19T05:29:24.582Z,105
2018-04-19T05:29:50.081Z,110
2018-04-19T05:30:15.555Z,110
2018-04-19T05:30:41.051Z,110
2018-04-19T05:31:06.575Z,115
2018-04-19T05:31:32.067Z,115
2018-04-19T05:31:57.503Z,115
2018-04-19T05:32:23.236Z,115
2018-04-19T05:32:48.692Z,120
2018-04-19T05:33:14.266Z,120
2018-04-19T05:33:39.759Z,120
2018-04-19T05:34:05.183Z,120
2018-04-19T05:34:30.748Z,120
2018-04-19T05:34:56.328Z,120
2018-04-19T05:35:22.165Z,120
2018-04-19T05:35:47.634Z,120
2018-04-19T05:36:13.141Z,125
2018-04-19T05:36:38.599Z,125
2018-04-19T05:37:04.084Z,125
2018-04-19T05:37:29.735Z,130
2018-04-19T05:37:55.338Z,130
2018-04-19T05:38:20.878Z,130
2018-04-19T05:38:47.025Z,130
2018-04-19T05:39:12.285Z,130
2018-04-19T05:39:37.883Z,130
2018-04-19T05:40:03.257Z,130
2018-04-19T05:40:28.780Z,135
2018-04-19T05:40:54.427Z,135
2018-04-19T05:41:19.850Z,135
2018-04-19T05:41:45.512Z,135
2018-04-19T05:42:11.333Z,135
2018-04-19T05:42:37.248Z,135
2018-04-19T05:43:03.238Z,135
2018-04-19T05:43:28.759Z,135
2018-04-19T05:43:54.556Z,135
2018-04-19T05:44:20.178Z,140
2018-04-19T05:44:46.167Z,140
2018-04-19T05:45:11.778Z,140
2018-04-19T05:45:37.445Z,140
2018-04-19T05:46:03.180Z,140
2018-04-19T05:46:28.999Z,140
2018-04-19T05:46:54.822Z,140
2018-04-19T05:47:20.651Z,140
2018-04-19T05:47:46.913Z,140
2018-04-19T05:48:12.512Z,140
2018-04-19T05:48:38.493Z,140
2018-04-19T05:49:04.020Z,140
2018-04-19T05:49:29.941Z,145
2018-04-19T05:49:55.613Z,145
2018-04-19T05:50:21.268Z,145
2018-04-19T05:50:46.828Z,145
2018-04-19T05:51:12.330Z,145
2018-04-19T05:51:38.000Z,145
2018-04-19T05:52:03.574Z,150
2018-04-19T05:52:29.121Z,150
2018-04-19T05:52:54.625Z,150
2018-04-19T05:53:20.319Z,150
2018-04-19T05:53:46.081Z,150
2018-04-19T05:54:12.011Z,155
2018-04-19T05:54:37.640Z,155
2018-04-19T05:55:03.155Z,155
2018-04-19T05:55:28.874Z,155
2018-04-19T05:55:55.293Z,155
2018-04-19T05:56:21.244Z,160
2018-04-19T05:56:46.907Z,155
2018-04-19T05:57:13.522Z,160
2018-04-19T05:57:40.022Z,160
2018-04-19T05:58:05.521Z,160
2018-04-19T05:58:30.930Z,160
2018-04-19T05:58:56.755Z,160
2018-04-19T05:59:22.559Z,160
2018-04-19T05:59:48.150Z,160
2018-04-19T06:00:13.711Z,160
2018-04-19T06:00:39.786Z,160
2018-04-19T06:01:05.325Z,165
2018-04-19T06:01:31.102Z,165
2018-04-19T06:01:56.724Z,165
2018-04-19T06:02:22.476Z,165
2018-04-19T06:02:48.036Z,165
2018-04-19T06:03:14.086Z,165
2018-04-19T06:03:39.626Z,165
2018-04-19T06:04:05.629Z,165
2018-04-19T06:04:31.252Z,165
2018-04-19T06:04:56.916Z,165
2018-04-19T06:05:22.395Z,165
2018-04-19T06:05:48.362Z,165
2018-04-19T06:06:14.550Z,165
2018-04-19T06:06:40.172Z,165
2018-04-19T06:07:06.185Z,165
2018-04-19T06:07:31.881Z,165
2018-04-19T06:07:57.846Z,165
2018-04-19T06:08:24.162Z,165
2018-04-19T06:08:49.741Z,165
2018-04-19T06:09:15.649Z,170
2018-04-19T06:09:41.397Z,165
2018-04-19T06:10:07.879Z,165
2018-04-19T06:10:34.000Z,165
2018-04-19T06:10:59.874Z,165
2018-04-19T06:11:25.904Z,165
2018-04-19T06:11:52.531Z,165
2018-04-19T06:12:19.024Z,165
2018-04-19T06:12:44.186Z,170
2018-04-19T06:13:09.922Z,170
2018-04-19T06:13:35.729Z,165
2018-04-19T06:14:01.125Z,165
2018-04-19T06:14:26.937Z,165
2018-04-19T06:14:52.594Z,170
2018-04-19T06:15:18.418Z,170
2018-04-19T06:15:43.996Z,170
2018-04-19T06:16:09.640Z,170
2018-04-19T06:16:35.517Z,170
2018-04-19T06:17:01.045Z,170
2018-04-19T06:17:26.966Z,170
2018-04-19T06:17:52.526Z,170
2018-04-19T06:18:18.422Z,170
2018-04-19T06:18:45.006Z,170
2018-04-19T06:19:10.860Z,175
2018-04-19T06:19:36.422Z,175
2018-04-19T06:20:02.824Z,175
2018-04-19T06:20:35.010Z,175
2018-04-19T06:21:37.143Z,175
2018-04-19T06:22:02.867Z,175
2018-04-19T06:22:28.708Z,175
2018-04-19T06:22:54.322Z,175
2018-04-19T06:23:20.127Z,175
2018-04-19T06:23:45.752Z,175
2018-04-19T06:24:11.774Z,175
2018-04-19T06:24:37.623Z,180
2018-04-19T06:25:03.451Z,175
2018-04-19T06:25:30.252Z,180
2018-04-19T06:26:50.857Z,180
2018-04-19T06:27:16.588Z,180
2018-04-19T06:27:42.296Z,180
2018-04-19T06:28:10.346Z,180
2018-04-19T06:28:35.976Z,180
2018-04-19T06:29:03.113Z,180
2018-04-19T06:30:06.416Z,185
2018-04-19T06:30:32.021Z,185
2018-04-19T06:30:57.637Z,185
2018-04-19T06:31:23.131Z,185
2018-04-19T06:31:49.462Z,190
2018-04-19T06:32:14.749Z,190
2018-04-19T06:32:40.645Z,195
2018-04-19T06:33:06.348Z,195
2018-04-19T06:33:31.646Z,195
2018-04-19T06:33:57.868Z,200
2018-04-19T06:34:23.445Z,200
2018-04-19T06:34:49.149Z,205
2018-04-19T06:35:14.666Z,210
2018-04-19T06:35:40.511Z,215
2018-04-19T06:36:06.205Z,215
2018-04-19T06:36:31.560Z,235
2018-04-19T06:36:57.255Z,295
2018-04-19T06:37:22.992Z,405
2018-04-19T06:37:48.751Z,530
2018-04-19T06:38:14.580Z,635
2018-04-19T06:38:40.182Z,720
2018-04-19T06:39:05.991Z,750
2018-04-19T06:39:31.653Z,735
2018-04-19T06:39:58.029Z,715
2018-04-19T06:40:23.602Z,705
2018-04-19T06:40:49.241Z,750
2018-04-19T06:41:15.304Z,810
2018-04-19T06:41:40.985Z,860
2018-04-19T06:42:06.635Z,880
2018-04-19T06:42:32.422Z,910
2018-04-19T06:42:58.113Z,895
2018-04-19T06:43:23.705Z,870
2018-04-19T06:43:49.546Z,865
2018-04-19T06:44:15.675Z,845
2018-04-19T06:44:41.556Z,810
2018-04-19T06:45:07.152Z,790
2018-04-19T06:45:32.983Z,780
2018-04-19T06:45:58.864Z,780
2018-04-19T06:46:24.206Z,785
2018-04-19T06:46:50.070Z,800
2018-04-19T06:47:15.746Z,825
2018-04-19T06:47:41.423Z,855
2018-04-19T06:48:07.095Z,865
2018-04-19T06:48:32.809Z,855
2018-04-19T06:48:58.415Z,820
2018-04-19T06:49:24.597Z,755
2018-04-19T06:49:49.852Z,670
2018-04-19T06:50:15.655Z,570
2018-04-19T06:50:41.772Z,475
2018-04-19T06:51:07.417Z,385
2018-04-19T06:51:33.091Z,305
2018-04-19T06:51:58.773Z,245
2018-04-19T06:52:24.393Z,225
2018-04-19T06:52:50.383Z,220
2018-04-19T06:53:16.176Z,215
2018-04-19T06:53:41.768Z,215
2018-04-19T06:54:07.428Z,220
2018-04-19T06:54:33.298Z,210
2018-04-19T06:54:59.101Z,210
2018-04-19T06:55:25.247Z,210
2018-04-19T06:55:50.870Z,210
2018-04-19T06:56:16.995Z,210
2018-04-19T06:56:42.678Z,205
2018-04-19T06:57:08.673Z,205
2018-04-19T06:57:34.470Z,205
2018-04-19T06:58:00.089Z,205
2018-04-19T06:58:25.711Z,205
2018-04-19T06:58:51.497Z,200
2018-04-19T06:59:17.395Z,200
2018-04-19T06:59:43.718Z,200
2018-04-19T07:00:09.405Z,200
2018-04-19T07:00:35.185Z,200
2018-04-19T07:01:00.791Z,205
2018-04-19T07:01:27.091Z,200
2018-04-19T07:01:52.316Z,200
2018-04-19T07:02:17.744Z,200
2018-04-19T07:02:43.383Z,200
2018-04-19T07:03:09.090Z,195
2018-04-19T07:03:35.112Z,200
2018-04-19T07:04:00.714Z,200
2018-04-19T07:04:26.678Z,195
2018-04-19T07:04:52.644Z,195
2018-04-19T07:05:18.002Z,195
2018-04-19T07:05:44.484Z,195
2018-04-19T07:06:10.559Z,200
2018-04-19T07:06:36.413Z,195
2018-04-19T07:07:01.976Z,200
2018-04-19T07:07:27.680Z,195
2018-04-19T07:07:53.580Z,195
2018-04-19T07:08:19.115Z,200
2018-04-19T07:08:45.561Z,195
2018-04-19T07:09:10.601Z,195
2018-04-19T07:09:36.713Z,195
2018-04-19T07:10:02.749Z,195
2018-04-19T07:10:28.263Z,195
2018-04-19T07:10:54.040Z,195
2018-04-19T07:11:19.897Z,195
2018-04-19T07:11:45.543Z,195
2018-04-19T07:12:11.210Z,195
2018-04-19T07:12:36.703Z,195
2018-04-19T07:13:02.399Z,190
2018-04-19T07:13:28.566Z,190
2018-04-19T07:13:54.224Z,190
2018-04-19T07:14:20.173Z,190
2018-04-19T07:14:45.834Z,190
2018-04-19T07:15:11.514Z,190
2018-04-19T07:15:37.082Z,190
2018-04-19T07:16:02.844Z,190
2018-04-19T07:16:28.579Z,190
2018-04-19T07:16:54.119Z,190
2018-04-19T07:17:19.519Z,190
2018-04-19T07:17:45.318Z,190
2018-04-19T07:18:11.204Z,190
2018-04-19T07:18:37.810Z,190
2018-04-19T07:19:03.473Z,190
2018-04-19T07:19:29.122Z,190
2018-04-19T07:19:55.084Z,190
2018-04-19T07:20:20.704Z,190
2018-04-19T07:20:46.187Z,190
2018-04-19T07:21:12.280Z,190
2018-04-19T07:21:37.908Z,190
2018-04-19T07:22:03.437Z,190
2018-04-19T07:22:29.066Z,190
2018-04-19T07:22:54.641Z,190
2018-04-19T07:23:20.489Z,190
2018-04-19T07:23:46.090Z,190
2018-04-19T07:24:11.706Z,190
2018-04-19T07:24:37.249Z,190
2018-04-19T07:25:02.974Z,190
2018-04-19T07:25:28.503Z,195
2018-04-19T07:25:54.299Z,190
2018-04-19T07:26:19.912Z,190
2018-04-19T07:26:45.421Z,190
2018-04-19T07:27:11.039Z,190
2018-04-19T07:27:36.622Z,190
2018-04-19T07:28:02.552Z,190
2018-04-19T07:28:27.983Z,190
2018-04-19T07:28:53.522Z,190
2018-04-19T07:29:19.306Z,190
2018-04-19T07:29:44.920Z,190
2018-04-19T07:30:10.656Z,190
2018-04-19T07:30:36.249Z,190
2018-04-19T07:31:01.989Z,190
2018-04-19T07:31:27.615Z,190
2018-04-19T07:31:53.137Z,190
2018-04-19T07:32:18.764Z,190
2018-04-19T07:32:44.273Z,190
2018-04-19T07:33:09.956Z,190
2018-04-19T07:33:35.445Z,190
2018-04-19T07:34:00.906Z,190
2018-04-19T07:34:26.503Z,190
2018-04-19T07:34:52.107Z,190
2018-04-19T07:35:18.376Z,190
2018-04-19T07:35:43.618Z,190
2018-04-19T07:36:09.041Z,190
2018-04-19T07:36:34.791Z,190
2018-04-19T07:37:00.371Z,190
2018-04-19T07:37:25.943Z,190
2018-04-19T07:37:51.823Z,190
2018-04-19T07:38:17.551Z,190
2018-04-19T07:38:43.271Z,190
2018-04-19T07:39:09.162Z,190
2018-04-19T07:39:34.942Z,190
2018-04-19T07:40:00.373Z,190
2018-04-19T07:40:25.977Z,190
2018-04-19T07:40:51.664Z,195
2018-04-19T07:41:17.446Z,195
2018-04-19T07:41:42.983Z,195
2018-04-19T07:42:08.506Z,190
2018-04-19T07:42:34.171Z,190
2018-04-19T07:43:00.010Z,190
2018-04-19T07:43:25.455Z,190
2018-04-19T07:43:51.021Z,190
2018-04-19T07:44:16.780Z,190
2018-04-19T07:44:43.088Z,190
2018-04-19T07:45:08.916Z,190
2018-04-19T07:45:34.553Z,190
2018-04-19T07:46:00.381Z,190
2018-04-19T07:46:26.079Z,190
2018-04-19T07:46:52.013Z,190
2018-04-19T07:47:17.756Z,190
2018-04-19T07:47:43.594Z,190
2018-04-19T07:48:09.032Z,190
2018-04-19T07:48:35.207Z,190
2018-04-19T07:49:00.836Z,190
2018-04-19T07:49:27.930Z,190
2018-04-19T07:49:53.310Z,195
2018-04-19T07:50:19.017Z,190
2018-04-19T07:50:44.628Z,190
2018-04-19T07:51:10.316Z,190
2018-04-19T07:51:35.996Z,190
2018-04-19T07:52:01.642Z,190
2018-04-19T07:52:27.211Z,190
2018-04-19T07:52:53.034Z,190
2018-04-19T07:53:18.656Z,190
2018-04-19T07:53:44.636Z,185
2018-04-19T07:54:10.178Z,185
2018-04-19T07:54:35.664Z,185
2018-04-19T07:55:01.295Z,185
2018-04-19T07:55:27.345Z,185
2018-04-19T07:55:53.041Z,185
2018-04-19T07:56:18.360Z,185
2018-04-19T07:56:43.963Z,185
2018-04-19T07:57:09.655Z,185
2018-04-19T07:57:35.387Z,185
2018-04-19T07:58:00.857Z,185
2018-04-19T07:58:26.516Z,185
2018-04-19T07:58:52.271Z,185
2018-04-19T07:59:17.676Z,185
2018-04-19T07:59:43.114Z,185
2018-04-19T08:00:08.795Z,185
2018-04-19T08:00:34.774Z,185
2018-04-19T08:01:00.600Z,185
2018-04-19T08:01:26.565Z,185
2018-04-19T08:01:51.903Z,185
2018-04-19T08:02:17.381Z,185
2018-04-19T08:02:42.986Z,185
2018-04-19T08:03:08.484Z,185
2018-04-19T08:03:35.096Z,185
2018-04-19T08:04:02.011Z,180
2018-04-19T08:04:27.873Z,180
2018-04-19T08:04:53.385Z,180
2018-04-19T08:05:20.009Z,180
2018-04-19T08:05:45.626Z,180
2018-04-19T08:06:11.288Z,180
2018-04-19T08:06:36.622Z,175
2018-04-19T08:07:02.456Z,180
2018-04-19T08:07:28.013Z,180
2018-04-19T08:07:53.576Z,180
2018-04-19T08:08:19.304Z,180
2018-04-19T08:08:45.292Z,180
2018-04-19T08:09:11.317Z,180
2018-04-19T08:09:36.994Z,180
2018-04-19T08:10:02.409Z,180
2018-04-19T08:10:28.099Z,180
2018-04-19T08:10:53.742Z,180
2018-04-19T08:11:19.476Z,180
2018-04-19T08:11:45.215Z,180
2018-04-19T08:12:11.305Z,180
2018-04-19T08:12:36.777Z,180
2018-04-19T08:13:02.595Z,180
2018-04-19T08:13:28.231Z,180
2018-04-19T08:13:53.985Z,180
2018-04-19T08:14:19.556Z,180
2018-04-19T08:14:45.194Z,185
2018-04-19T08:15:10.897Z,180
2018-04-19T08:15:36.419Z,175
2018-04-19T08:16:01.951Z,175
2018-04-19T08:16:27.946Z,175
2018-04-19T08:16:53.496Z,175
2018-04-19T08:17:19.130Z,175
2018-04-19T08:17:44.998Z,175
2018-04-19T08:18:10.697Z,175
2018-04-19T08:18:36.238Z,175
2018-04-19T08:19:01.740Z,175
2018-04-19T08:19:27.621Z,175
2018-04-19T08:19:53.581Z,175
2018-04-19T08:20:19.330Z,175
2018-04-19T08:20:45.193Z,175
2018-04-19T08:21:10.791Z,175
2018-04-19T08:21:36.484Z,175
2018-04-19T08:22:02.155Z,175
2018-04-19T08:22:27.643Z,175
2018-04-19T08:22:53.186Z,175
2018-04-19T08:23:18.949Z,175
2018-04-19T08:23:44.332Z,175
2018-04-19T08:24:10.111Z,170
2018-04-19T08:24:35.963Z,170
2018-04-19T08:25:01.671Z,170
2018-04-19T08:25:27.510Z,170
2018-04-19T08:25:53.352Z,170
2018-04-19T08:26:18.715Z,170
2018-04-19T08:26:44.490Z,170
2018-04-19T08:27:10.011Z,170
2018-04-19T08:27:35.849Z,170
2018-04-19T08:28:01.286Z,170
2018-04-19T08:28:27.092Z,170
2018-04-19T08:28:53.580Z,165
2018-04-19T08:29:19.097Z,165
2018-04-19T08:29:44.906Z,165
2018-04-19T08:30:10.582Z,165
2018-04-19T08:30:36.208Z,165
2018-04-19T08:31:01.965Z,165
2018-04-19T08:31:27.737Z,165
2018-04-19T08:31:53.359Z,165
2018-04-19T08:32:19.027Z,165
2018-04-19T08:32:44.723Z,165
2018-04-19T08:33:10.312Z,165
2018-04-19T08:33:35.928Z,165
2018-04-19T08:34:01.761Z,165
2018-04-19T08:34:27.582Z,165
2018-04-19T08:34:53.144Z,165
2018-04-19T08:35:18.823Z,170
2018-04-19T08:35:44.470Z,165
2018-04-19T08:36:10.271Z,165
2018-04-19T08:36:35.690Z,165
2018-04-19T08:37:01.556Z,165
2018-04-19T08:37:26.987Z,165
2018-04-19T08:37:53.316Z,165
2018-04-19T08:38:18.938Z,165
2018-04-19T08:38:44.817Z,165
2018-04-19T08:39:10.308Z,165
2018-04-19T08:39:36.106Z,165
2018-04-19T08:40:01.949Z,165
2018-04-19T08:40:28.149Z,165
2018-04-19T08:40:53.793Z,165
2018-04-19T08:41:19.291Z,165
2018-04-19T08:41:45.194Z,165
2018-04-19T08:42:10.768Z,165
2018-04-19T08:42:36.583Z,165
2018-04-19T08:43:03.065Z,165
2018-04-19T08:43:28.708Z,160
2018-04-19T08:43:54.481Z,160
2018-04-19T08:44:20.171Z,165
2018-04-19T08:44:46.201Z,165
2018-04-19T08:45:11.849Z,160
2018-04-19T08:45:37.547Z,160
2018-04-19T08:46:03.290Z,160
2018-04-19T08:46:29.050Z,160
2018-04-19T08:46:54.982Z,160
2018-04-19T08:47:20.808Z,160
2018-04-19T08:47:46.850Z,160
2018-04-19T08:48:12.469Z,160
2018-04-19T08:48:38.148Z,160
2018-04-19T08:49:04.401Z,160
2018-04-19T08:49:30.098Z,160
2018-04-19T08:49:55.858Z,160
2018-04-19T08:50:21.405Z,160
2018-04-19T08:50:47.519Z,160
2018-04-19T08:51:13.156Z,160
2018-04-19T08:51:38.604Z,160
2018-04-19T08:52:04.315Z,160
2018-04-19T08:52:30.288Z,160
2018-04-19T08:52:55.904Z,160
2018-04-19T08:53:21.647Z,160
2018-04-19T08:53:47.543Z,160
2018-04-19T08:54:13.423Z,160
2018-04-19T08:54:38.653Z,160
2018-04-19T08:55:04.212Z,160
2018-04-19T08:55:29.886Z,160
2018-04-19T08:55:55.332Z,160
2018-04-19T08:56:21.104Z,155
2018-04-19T08:56:46.738Z,160
2018-04-19T08:57:12.202Z,160
2018-04-19T08:57:37.811Z,160
2018-04-19T08:58:03.260Z,160
2018-04-19T08:58:28.790Z,160
2018-04-19T08:58:54.369Z,160
2018-04-19T08:59:19.954Z,160
2018-04-19T08:59:45.397Z,160
2018-04-19T09:00:10.850Z,160
2018-04-19T09:00:36.404Z,160
2018-04-19T09:01:02.104Z,160
2018-04-19T09:01:27.716Z,160
2018-04-19T09:01:53.399Z,160
2018-04-19T09:02:18.847Z,160
2018-04-19T09:02:44.276Z,160
2018-04-19T09:03:10.109Z,160
2018-04-19T09:03:35.552Z,160
2018-04-19T09:04:01.257Z,160
2018-04-19T09:04:26.650Z,160
2018-04-19T09:04:52.272Z,160
2018-04-19T09:05:17.775Z,160
2018-04-19T09:05:43.282Z,160
2018-04-19T09:06:08.861Z,160
2018-04-19T09:06:34.271Z,160
2018-04-19T09:06:59.738Z,160
2018-04-19T09:07:25.267Z,160
2018-04-19T09:07:50.723Z,160
2018-04-19T09:08:16.222Z,160
2018-04-19T09:08:41.704Z,160
2018-04-19T09:09:07.141Z,160
2018-04-19T09:09:32.681Z,160
2018-04-19T09:09:58.163Z,160
2018-04-19T09:10:23.643Z,160
2018-04-19T09:10:49.116Z,155
2018-04-19T09:11:14.545Z,160
2018-04-19T09:11:40.070Z,160
2018-04-19T09:12:05.577Z,160
2018-04-19T09:12:31.103Z,155
2018-04-19T09:12:56.591Z,155
2018-04-19T09:13:22.193Z,155
2018-04-19T09:13:47.710Z,155
2018-04-19T09:14:13.216Z,155
2018-04-19T09:14:38.703Z,155
2018-04-19T09:15:04.396Z,155
2018-04-19T09:15:29.945Z,155
2018-04-19T09:15:55.536Z,155
2018-04-19T09:16:21.047Z,155
2018-04-19T09:16:46.545Z,155
2018-04-19T09:17:11.996Z,155
2018-04-19T09:17:37.590Z,155
2018-04-19T09:18:03.038Z,155
2018-04-19T09:18:28.590Z,155
2018-04-19T09:18:53.991Z,155
2018-04-19T09:19:19.500Z,155
2018-04-19T09:19:44.995Z,155
2018-04-19T09:20:10.523Z,155
2018-04-19T09:20:36.015Z,155
2018-04-19T09:21:01.475Z,155
2018-04-19T09:21:27.041Z,155
2018-04-19T09:21:52.569Z,155
2018-04-19T09:22:17.957Z,155
2018-04-19T09:22:43.700Z,155
2018-04-19T09:23:09.147Z,155
2018-04-19T09:23:34.604Z,155
2018-04-19T09:24:00.074Z,155
2018-04-19T09:24:25.549Z,155
2018-04-19T09:24:50.996Z,155
2018-04-19T09:25:16.458Z,155
2018-04-19T09:25:42.028Z,155
2018-04-19T09:26:07.538Z,160
2018-04-19T09:26:33.199Z,155
2018-04-19T09:26:58.745Z,155
2018-04-19T09:27:24.178Z,155
2018-04-19T09:27:49.729Z,150
2018-04-19T09:28:15.270Z,150
2018-04-19T09:28:40.744Z,150
2018-04-19T09:29:06.341Z,150
2018-04-19T09:29:31.999Z,150
2018-04-19T09:29:57.522Z,150
2018-04-19T09:30:22.964Z,150
2018-04-19T09:30:48.470Z,150
2018-04-19T09:31:13.884Z,150
2018-04-19T09:31:39.426Z,150
2018-04-19T09:32:04.900Z,150
2018-04-19T09:32:30.414Z,150
2018-04-19T09:32:55.852Z,150
2018-04-19T09:33:21.405Z,150
2018-04-19T09:33:46.854Z,150
2018-04-19T09:34:12.380Z,150
2018-04-19T09:34:37.923Z,150
2018-04-19T09:35:03.414Z,150
2018-04-19T09:35:28.891Z,150
2018-04-19T09:35:54.467Z,150
2018-04-19T09:36:19.861Z,150
2018-04-19T09:36:45.563Z,145
2018-04-19T09:37:11.013Z,145
2018-04-19T09:37:36.445Z,145
2018-04-19T09:38:01.958Z,145
2018-04-19T09:38:27.450Z,145
2018-04-19T09:38:52.980Z,145
2018-04-19T09:39:18.462Z,145
2018-04-19T09:39:43.938Z,145
2018-04-19T09:40:09.544Z,145
2018-04-19T09:40:34.952Z,145
2018-04-19T09:41:00.395Z,145
2018-04-19T09:41:26.024Z,145
2018-04-19T09:41:51.671Z,145
2018-04-19T09:42:17.146Z,145
2018-04-19T09:42:42.832Z,145
2018-04-19T09:43:08.385Z,145
2018-04-19T09:43:33.894Z,145
2018-04-19T09:43:59.404Z,145
2018-04-19T09:44:24.869Z,145
2018-04-19T09:44:50.361Z,145
2018-04-19T09:45:15.807Z,140
2018-04-19T09:45:41.350Z,145
2018-04-19T09:46:06.897Z,145
2018-04-19T09:46:32.565Z,145
2018-04-19T09:46:57.869Z,145
2018-04-19T09:47:23.367Z,145
2018-04-19T09:47:49.038Z,145
2018-04-19T09:48:14.522Z,145
2018-04-19T09:48:40.032Z,145
2018-04-19T09:49:05.585Z,140
2018-04-19T09:49:31.141Z,140
2018-04-19T09:49:56.635Z,140
2018-04-19T09:50:22.272Z,140
2018-04-19T09:50:47.718Z,140
2018-04-19T09:51:13.209Z,140
2018-04-19T09:51:38.629Z,140
2018-04-19T09:52:04.332Z,140
2018-04-19T09:52:29.843Z,140
2018-04-19T09:52:55.318Z,140
2018-04-19T09:53:20.868Z,140
2018-04-19T09:53:46.406Z,140
2018-04-19T09:54:11.926Z,140
2018-04-19T09:54:37.494Z,140
2018-04-19T09:55:02.976Z,145
2018-04-19T09:55:28.572Z,140
2018-04-19T09:55:54.113Z,135
2018-04-19T09:56:19.573Z,135
2018-04-19T09:56:45.120Z,135
2018-04-19T09:57:10.804Z,135
2018-04-19T09:57:36.321Z,135
2018-04-19T09:58:01.809Z,135
2018-04-19T09:58:27.494Z,135
2018-04-19T09:58:53.110Z,135
2018-04-19T09:59:18.618Z,135
2018-04-19T09:59:44.148Z,135
2018-04-19T10:00:09.643Z,135
2018-04-19T10:00:35.060Z,135
2018-04-19T10:01:00.840Z,135
2018-04-19T10:01:26.305Z,135
2018-04-19T10:01:51.783Z,135
2018-04-19T10:02:17.400Z,130
2018-04-19T10:02:42.960Z,125
2018-04-19T10:03:08.434Z,130
2018-04-19T10:03:33.899Z,130
2018-04-19T10:03:59.419Z,135
2018-04-19T10:04:24.851Z,135
2018-04-19T10:04:50.365Z,135
2018-04-19T10:05:15.892Z,135
2018-04-19T10:05:41.311Z,130
2018-04-19T10:06:06.813Z,130
2018-04-19T10:06:32.516Z,130
2018-04-19T10:06:58.016Z,130
2018-04-19T10:07:23.476Z,130
2018-04-19T10:07:49.032Z,130
2018-04-19T10:08:14.473Z,130
2018-04-19T10:08:40.040Z,130
2018-04-19T10:09:05.571Z,130
2018-04-19T10:09:31.011Z,130